Harriman, Wyoming
Current Conditions -  °F | °C
As of 11:56 PM on Wednesday 22 Oct 2014 (Local Time) from KFEW Reporting Station
Few Clouds Few Clouds  
Wind Chill: 33°   Ceiling: Unl
Heat Index: 38°   Visibility: 10mi
Dew Point: 30°   Wind: 7mph
Humidity: 72%   Direction: 230°SW
Pressure: 30.14"   Gusts: NA
Location:  41.0966°N, 105.138°W
Report Text: KFEW 230556Z AUTO 23006KT 10SM FEW240 03/M01 A3014 RMK AO2 SLP173 T00341013 10132 20022 401840022 50001 $
Loading
Personal Weather Stations






























Interactive Weather Map
Tropical Storm Tracking
New forecast layout! Learn more

10-Day Weather Forecast

Advertisements
Track Severe Weather on mobile